sensor_id;sensor_type;location;lat;lon;timestamp;temperature;humidity
24444;DHT22;13346;50.984;5.822;2023-02-28T00:00:11;-1.30;99.90
24444;DHT22;13346;50.984;5.822;2023-02-28T00:02:41;-1.30;99.90
24444;DHT22;13346;50.984;5.822;2023-02-28T00:05:10;-1.30;99.90
24444;DHT22;13346;50.984;5.822;2023-02-28T00:07:38;-1.40;99.90
24444;DHT22;13346;50.984;5.822;2023-02-28T00:10:07;-1.20;99.90
24444;DHT22;13346;50.984;5.822;2023-02-28T00:12:35;-1.30;99.90
24444;DHT22;13346;50.984;5.822;2023-02-28T00:15:05;-1.10;99.90
24444;DHT22;13346;50.984;5.822;2023-02-28T00:17:32;-1.10;99.90
24444;DHT22;13346;50.984;5.822;2023-02-28T00:20:01;-1.00;99.90
24444;DHT22;13346;50.984;5.822;2023-02-28T00:22:38;-0.90;99.90
24444;DHT22;13346;50.984;5.822;2023-02-28T00:25:06;-0.80;99.90
24444;DHT22;13346;50.984;5.822;2023-02-28T00:27:34;-0.90;99.90
24444;DHT22;13346;50.984;5.822;2023-02-28T00:30:02;-1.00;99.90
24444;DHT22;13346;50.984;5.822;2023-02-28T00:32:29;-1.00;99.90
24444;DHT22;13346;50.984;5.822;2023-02-28T00:34:56;-1.00;99.90
24444;DHT22;13346;50.984;5.822;2023-02-28T00:37:25;-0.90;99.90
24444;DHT22;13346;50.984;5.822;2023-02-28T00:39:52;-1.10;99.90
24444;DHT22;13346;50.984;5.822;2023-02-28T00:42:19;-1.20;99.90
24444;DHT22;13346;50.984;5.822;2023-02-28T00:44:46;-1.30;99.90
24444;DHT22;13346;50.984;5.822;2023-02-28T00:47:13;-1.20;99.90
24444;DHT22;13346;50.984;5.822;2023-02-28T00:49:41;-1.10;99.90
24444;DHT22;13346;50.984;5.822;2023-02-28T00:52:08;-1.30;99.90
24444;DHT22;13346;50.984;5.822;2023-02-28T00:54:37;-1.40;99.90
24444;DHT22;13346;50.984;5.822;2023-02-28T00:57:04;-1.70;99.90
24444;DHT22;13346;50.984;5.822;2023-02-28T00:59:31;-1.70;99.90
24444;DHT22;13346;50.984;5.822;2023-02-28T01:01:59;-1.80;99.90
24444;DHT22;13346;50.984;5.822;2023-02-28T01:04:26;-1.90;99.90
24444;DHT22;13346;50.984;5.822;2023-02-28T01:06:53;-1.80;99.90
24444;DHT22;13346;50.984;5.822;2023-02-28T01:09:20;-1.80;99.90
24444;DHT22;13346;50.984;5.822;2023-02-28T01:11:49;-2.00;99.90
24444;DHT22;13346;50.984;5.822;2023-02-28T01:14:17;-2.00;99.90
24444;DHT22;13346;50.984;5.822;2023-02-28T01:16:44;-1.90;99.90
24444;DHT22;13346;50.984;5.822;2023-02-28T01:19:11;-1.90;99.90
24444;DHT22;13346;50.984;5.822;2023-02-28T01:21:39;-1.90;99.90
24444;DHT22;13346;50.984;5.822;2023-02-28T01:24:06;-2.10;99.90
24444;DHT22;13346;50.984;5.822;2023-02-28T01:26:34;-2.00;99.90
24444;DHT22;13346;50.984;5.822;2023-02-28T01:29:03;-2.00;99.90
24444;DHT22;13346;50.984;5.822;2023-02-28T01:31:30;-1.90;99.90
24444;DHT22;13346;50.984;5.822;2023-02-28T01:33:57;-1.90;99.90
24444;DHT22;13346;50.984;5.822;2023-02-28T01:36:25;-1.90;99.90
24444;DHT22;13346;50.984;5.822;2023-02-28T01:38:52;-1.90;99.90
24444;DHT22;13346;50.984;5.822;2023-02-28T01:41:22;-1.80;99.90
24444;DHT22;13346;50.984;5.822;2023-02-28T01:43:57;-1.80;99.90
24444;DHT22;13346;50.984;5.822;2023-02-28T01:46:26;-1.90;99.90
24444;DHT22;13346;50.984;5.822;2023-02-28T01:48:59;-1.90;99.90
24444;DHT22;13346;50.984;5.822;2023-02-28T01:51:30;-1.90;99.90
24444;DHT22;13346;50.984;5.822;2023-02-28T01:54:02;-2.00;99.90
24444;DHT22;13346;50.984;5.822;2023-02-28T01:56:33;-1.90;99.90
24444;DHT22;13346;50.984;5.822;2023-02-28T01:59:02;-2.00;99.90
24444;DHT22;13346;50.984;5.822;2023-02-28T02:01:31;-2.10;99.90
24444;DHT22;13346;50.984;5.822;2023-02-28T02:04:01;-2.10;99.90
24444;DHT22;13346;50.984;5.822;2023-02-28T02:06:33;-2.10;99.90
24444;DHT22;13346;50.984;5.822;2023-02-28T02:09:01;-2.10;99.90
24444;DHT22;13346;50.984;5.822;2023-02-28T02:11:29;-2.30;99.90
24444;DHT22;13346;50.984;5.822;2023-02-28T02:14:14;-2.30;99.90
24444;DHT22;13346;50.984;5.822;2023-02-28T02:16:55;-2.20;99.90
24444;DHT22;13346;50.984;5.822;2023-02-28T02:23:16;-2.40;99.90
24444;DHT22;13346;50.984;5.822;2023-02-28T02:25:51;-2.30;99.90
24444;DHT22;13346;50.984;5.822;2023-02-28T02:28:49;-2.50;99.90
24444;DHT22;13346;50.984;5.822;2023-02-28T02:34:34;-2.80;99.90
24444;DHT22;13346;50.984;5.822;2023-02-28T02:37:12;-2.80;99.90
24444;DHT22;13346;50.984;5.822;2023-02-28T02:39:47;-2.90;99.90
24444;DHT22;13346;50.984;5.822;2023-02-28T02:42:19;-3.50;99.90
24444;DHT22;13346;50.984;5.822;2023-02-28T02:44:52;-3.90;99.90
24444;DHT22;13346;50.984;5.822;2023-02-28T02:47:24;-4.10;99.90
24444;DHT22;13346;50.984;5.822;2023-02-28T02:49:55;-4.10;99.90
24444;DHT22;13346;50.984;5.822;2023-02-28T02:52:29;-4.10;99.90
24444;DHT22;13346;50.984;5.822;2023-02-28T02:54:59;-3.80;99.90
24444;DHT22;13346;50.984;5.822;2023-02-28T02:57:30;-3.40;99.90
24444;DHT22;13346;50.984;5.822;2023-02-28T03:00:01;-3.10;99.90
24444;DHT22;13346;50.984;5.822;2023-02-28T03:02:30;-2.90;99.90
24444;DHT22;13346;50.984;5.822;2023-02-28T03:05:04;-3.10;99.90
24444;DHT22;13346;50.984;5.822;2023-02-28T03:07:32;-3.20;99.90
24444;DHT22;13346;50.984;5.822;2023-02-28T03:09:59;-3.10;99.90
24444;DHT22;13346;50.984;5.822;2023-02-28T03:12:40;-3.30;99.90
24444;DHT22;13346;50.984;5.822;2023-02-28T03:15:15;-3.40;99.90
24444;DHT22;13346;50.984;5.822;2023-02-28T03:17:55;-3.00;99.90
24444;DHT22;13346;50.984;5.822;2023-02-28T03:20:35;-2.90;99.90
24444;DHT22;13346;50.984;5.822;2023-02-28T03:23:15;-2.90;99.90
24444;DHT22;13346;50.984;5.822;2023-02-28T03:25:55;-2.80;99.90
24444;DHT22;13346;50.984;5.822;2023-02-28T03:28:29;-2.80;99.90
24444;DHT22;13346;50.984;5.822;2023-02-28T03:31:00;-2.80;99.90
24444;DHT22;13346;50.984;5.822;2023-02-28T03:33:33;-3.00;99.90
24444;DHT22;13346;50.984;5.822;2023-02-28T03:36:07;-3.00;99.90
24444;DHT22;13346;50.984;5.822;2023-02-28T03:38:39;-3.10;99.90
24444;DHT22;13346;50.984;5.822;2023-02-28T03:41:13;-2.80;99.90
24444;DHT22;13346;50.984;5.822;2023-02-28T03:43:44;-2.50;99.90
24444;DHT22;13346;50.984;5.822;2023-02-28T03:46:17;-2.40;99.90
24444;DHT22;13346;50.984;5.822;2023-02-28T03:48:51;-2.20;99.90
24444;DHT22;13346;50.984;5.822;2023-02-28T03:51:24;-2.00;99.90
24444;DHT22;13346;50.984;5.822;2023-02-28T03:53:56;-1.90;99.90
24444;DHT22;13346;50.984;5.822;2023-02-28T03:56:29;-2.00;99.90
24444;DHT22;13346;50.984;5.822;2023-02-28T03:59:02;-2.00;99.90
24444;DHT22;13346;50.984;5.822;2023-02-28T04:01:35;-1.90;99.90
24444;DHT22;13346;50.984;5.822;2023-02-28T04:04:03;-1.90;99.90
24444;DHT22;13346;50.984;5.822;2023-02-28T04:06:33;-2.10;99.90
24444;DHT22;13346;50.984;5.822;2023-02-28T04:09:01;-2.20;99.90
24444;DHT22;13346;50.984;5.822;2023-02-28T04:11:33;-2.40;99.90
24444;DHT22;13346;50.984;5.822;2023-02-28T04:14:01;-2.50;99.90
24444;DHT22;13346;50.984;5.822;2023-02-28T04:16:29;-2.50;99.90
24444;DHT22;13346;50.984;5.822;2023-02-28T04:18:56;-2.50;99.90
24444;DHT22;13346;50.984;5.822;2023-02-28T04:21:28;-2.70;99.90
24444;DHT22;13346;50.984;5.822;2023-02-28T04:23:57;-2.90;99.90
24444;DHT22;13346;50.984;5.822;2023-02-28T04:26:28;-2.70;99.90
24444;DHT22;13346;50.984;5.822;2023-02-28T04:28:56;-2.80;99.90
24444;DHT22;13346;50.984;5.822;2023-02-28T04:31:23;-2.80;99.90
24444;DHT22;13346;50.984;5.822;2023-02-28T04:33:51;-2.80;99.90
24444;DHT22;13346;50.984;5.822;2023-02-28T04:36:18;-2.80;99.90
24444;DHT22;13346;50.984;5.822;2023-02-28T04:38:45;-2.70;99.90
24444;DHT22;13346;50.984;5.822;2023-02-28T04:41:14;-2.90;99.90
24444;DHT22;13346;50.984;5.822;2023-02-28T04:43:42;-2.80;99.90
24444;DHT22;13346;50.984;5.822;2023-02-28T04:46:09;-2.90;99.90
24444;DHT22;13346;50.984;5.822;2023-02-28T04:48:38;-3.00;99.90
24444;DHT22;13346;50.984;5.822;2023-02-28T04:51:07;-3.10;99.90
24444;DHT22;13346;50.984;5.822;2023-02-28T04:53:36;-3.20;99.90
24444;DHT22;13346;50.984;5.822;2023-02-28T04:56:04;-3.10;99.90
24444;DHT22;13346;50.984;5.822;2023-02-28T04:58:33;-3.10;99.90
24444;DHT22;13346;50.984;5.822;2023-02-28T05:01:04;-3.10;99.90
24444;DHT22;13346;50.984;5.822;2023-02-28T05:03:41;-3.00;99.90
24444;DHT22;13346;50.984;5.822;2023-02-28T05:06:08;-3.00;99.90
24444;DHT22;13346;50.984;5.822;2023-02-28T05:08:36;-3.10;99.90
24444;DHT22;13346;50.984;5.822;2023-02-28T05:11:05;-2.80;99.90
24444;DHT22;13346;50.984;5.822;2023-02-28T05:13:35;-2.70;99.90
24444;DHT22;13346;50.984;5.822;2023-02-28T05:16:02;-2.90;99.90
24444;DHT22;13346;50.984;5.822;2023-02-28T05:18:30;-2.80;99.90
24444;DHT22;13346;50.984;5.822;2023-02-28T05:20:57;-2.80;99.90
24444;DHT22;13346;50.984;5.822;2023-02-28T05:23:24;-2.80;99.90
24444;DHT22;13346;50.984;5.822;2023-02-28T05:25:51;-2.70;99.90
24444;DHT22;13346;50.984;5.822;2023-02-28T05:28:19;-2.70;99.90
24444;DHT22;13346;50.984;5.822;2023-02-28T05:30:48;-2.80;99.90
24444;DHT22;13346;50.984;5.822;2023-02-28T05:33:15;-3.00;99.90
24444;DHT22;13346;50.984;5.822;2023-02-28T05:35:42;-3.10;99.90
24444;DHT22;13346;50.984;5.822;2023-02-28T05:38:09;-3.10;99.90
24444;DHT22;13346;50.984;5.822;2023-02-28T05:40:38;-3.20;99.90
24444;DHT22;13346;50.984;5.822;2023-02-28T05:43:07;-3.20;99.90
24444;DHT22;13346;50.984;5.822;2023-02-28T05:45:35;-3.30;99.90
24444;DHT22;13346;50.984;5.822;2023-02-28T05:48:04;-3.40;99.90
24444;DHT22;13346;50.984;5.822;2023-02-28T05:50:32;-3.30;99.90
24444;DHT22;13346;50.984;5.822;2023-02-28T05:52:59;-3.30;99.90
24444;DHT22;13346;50.984;5.822;2023-02-28T05:55:26;-3.40;99.90
24444;DHT22;13346;50.984;5.822;2023-02-28T05:57:53;-3.40;99.90
24444;DHT22;13346;50.984;5.822;2023-02-28T06:00:22;-3.40;99.90
24444;DHT22;13346;50.984;5.822;2023-02-28T06:02:49;-3.30;99.90
24444;DHT22;13346;50.984;5.822;2023-02-28T06:05:20;-3.40;99.90
24444;DHT22;13346;50.984;5.822;2023-02-28T06:07:47;-3.30;99.90
24444;DHT22;13346;50.984;5.822;2023-02-28T06:10:15;-3.20;99.90
24444;DHT22;13346;50.984;5.822;2023-02-28T06:12:42;-3.30;99.90
24444;DHT22;13346;50.984;5.822;2023-02-28T06:15:12;-3.20;99.90
24444;DHT22;13346;50.984;5.822;2023-02-28T06:17:40;-3.20;99.90
24444;DHT22;13346;50.984;5.822;2023-02-28T06:20:08;-3.10;99.90
24444;DHT22;13346;50.984;5.822;2023-02-28T06:22:40;-3.00;99.90
24444;DHT22;13346;50.984;5.822;2023-02-28T06:25:08;-3.00;99.90
24444;DHT22;13346;50.984;5.822;2023-02-28T06:27:36;-2.90;99.90
24444;DHT22;13346;50.984;5.822;2023-02-28T06:30:04;-3.00;99.90
24444;DHT22;13346;50.984;5.822;2023-02-28T06:32:31;-2.80;99.90
24444;DHT22;13346;50.984;5.822;2023-02-28T06:34:59;-2.80;99.90
24444;DHT22;13346;50.984;5.822;2023-02-28T06:37:26;-2.90;99.90
24444;DHT22;13346;50.984;5.822;2023-02-28T06:39:55;-2.80;99.90
24444;DHT22;13346;50.984;5.822;2023-02-28T06:42:22;-2.90;99.90
24444;DHT22;13346;50.984;5.822;2023-02-28T06:44:51;-3.00;99.90
24444;DHT22;13346;50.984;5.822;2023-02-28T06:47:18;-3.00;99.90
24444;DHT22;13346;50.984;5.822;2023-02-28T06:49:45;-3.00;99.90
24444;DHT22;13346;50.984;5.822;2023-02-28T06:52:12;-3.10;99.90
24444;DHT22;13346;50.984;5.822;2023-02-28T06:54:39;-3.10;99.90
24444;DHT22;13346;50.984;5.822;2023-02-28T06:57:08;-3.20;99.90
24444;DHT22;13346;50.984;5.822;2023-02-28T06:59:35;-3.10;99.90
24444;DHT22;13346;50.984;5.822;2023-02-28T07:02:03;-2.80;99.90
24444;DHT22;13346;50.984;5.822;2023-02-28T07:04:32;-2.70;99.90
24444;DHT22;13346;50.984;5.822;2023-02-28T07:06:59;-2.60;99.90
24444;DHT22;13346;50.984;5.822;2023-02-28T07:09:26;-2.40;99.90
24444;DHT22;13346;50.984;5.822;2023-02-28T07:11:55;-2.40;99.90
24444;DHT22;13346;50.984;5.822;2023-02-28T07:14:24;-2.30;99.90
24444;DHT22;13346;50.984;5.822;2023-02-28T07:16:51;-2.30;99.90
24444;DHT22;13346;50.984;5.822;2023-02-28T07:19:19;-2.20;99.90
24444;DHT22;13346;50.984;5.822;2023-02-28T07:21:46;-2.40;99.90
24444;DHT22;13346;50.984;5.822;2023-02-28T07:24:13;-2.20;99.90
24444;DHT22;13346;50.984;5.822;2023-02-28T07:26:43;-2.10;99.90
24444;DHT22;13346;50.984;5.822;2023-02-28T07:29:10;-2.00;99.90
24444;DHT22;13346;50.984;5.822;2023-02-28T07:31:39;-1.90;99.90
24444;DHT22;13346;50.984;5.822;2023-02-28T07:34:06;-1.90;99.90
24444;DHT22;13346;50.984;5.822;2023-02-28T07:36:33;-1.70;99.90
24444;DHT22;13346;50.984;5.822;2023-02-28T07:39:00;-1.60;99.90
24444;DHT22;13346;50.984;5.822;2023-02-28T07:41:28;-1.60;99.90
24444;DHT22;13346;50.984;5.822;2023-02-28T07:43:55;-1.50;99.90
24444;DHT22;13346;50.984;5.822;2023-02-28T07:46:23;-1.50;99.90
24444;DHT22;13346;50.984;5.822;2023-02-28T07:48:52;-1.40;99.90
24444;DHT22;13346;50.984;5.822;2023-02-28T07:51:22;-1.40;99.90
24444;DHT22;13346;50.984;5.822;2023-02-28T07:53:49;-1.40;99.90
24444;DHT22;13346;50.984;5.822;2023-02-28T07:56:17;-1.20;99.90
24444;DHT22;13346;50.984;5.822;2023-02-28T07:58:44;-1.20;99.90
24444;DHT22;13346;50.984;5.822;2023-02-28T08:01:11;-1.10;99.90
24444;DHT22;13346;50.984;5.822;2023-02-28T08:03:39;-1.10;99.90
24444;DHT22;13346;50.984;5.822;2023-02-28T08:06:15;-1.00;99.90
24444;DHT22;13346;50.984;5.822;2023-02-28T08:08:42;-0.90;99.90
24444;DHT22;13346;50.984;5.822;2023-02-28T08:11:10;-0.70;99.90
24444;DHT22;13346;50.984;5.822;2023-02-28T08:13:37;-0.60;99.90
24444;DHT22;13346;50.984;5.822;2023-02-28T08:16:05;-0.50;99.90
24444;DHT22;13346;50.984;5.822;2023-02-28T08:18:32;-0.40;99.90
24444;DHT22;13346;50.984;5.822;2023-02-28T08:21:05;-0.30;99.90
24444;DHT22;13346;50.984;5.822;2023-02-28T08:23:33;-0.20;99.90
24444;DHT22;13346;50.984;5.822;2023-02-28T08:26:01;-0.10;99.90
24444;DHT22;13346;50.984;5.822;2023-02-28T08:28:29;0.00;99.90
24444;DHT22;13346;50.984;5.822;2023-02-28T08:30:56;0.10;99.90
24444;DHT22;13346;50.984;5.822;2023-02-28T08:33:25;0.20;99.90
24444;DHT22;13346;50.984;5.822;2023-02-28T08:35:53;0.40;99.90
24444;DHT22;13346;50.984;5.822;2023-02-28T08:38:21;0.50;99.90
24444;DHT22;13346;50.984;5.822;2023-02-28T08:40:56;0.60;99.90
24444;DHT22;13346;50.984;5.822;2023-02-28T08:43:23;0.70;99.90
24444;DHT22;13346;50.984;5.822;2023-02-28T08:45:51;0.80;99.90
24444;DHT22;13346;50.984;5.822;2023-02-28T08:48:19;0.80;99.90
24444;DHT22;13346;50.984;5.822;2023-02-28T08:50:55;0.80;99.90
24444;DHT22;13346;50.984;5.822;2023-02-28T08:53:22;0.90;99.90
24444;DHT22;13346;50.984;5.822;2023-02-28T08:55:57;0.90;99.90
24444;DHT22;13346;50.984;5.822;2023-02-28T08:58:25;1.00;99.90
24444;DHT22;13346;50.984;5.822;2023-02-28T09:00:52;1.00;99.90
24444;DHT22;13346;50.984;5.822;2023-02-28T09:03:20;1.20;99.90
24444;DHT22;13346;50.984;5.822;2023-02-28T09:05:55;1.20;99.90
24444;DHT22;13346;50.984;5.822;2023-02-28T09:08:22;1.30;99.90
24444;DHT22;13346;50.984;5.822;2023-02-28T09:10:50;1.50;99.90
24444;DHT22;13346;50.984;5.822;2023-02-28T09:13:19;1.70;99.90
24444;DHT22;13346;50.984;5.822;2023-02-28T09:15:46;1.80;99.90
24444;DHT22;13346;50.984;5.822;2023-02-28T09:18:14;1.90;99.90
24444;DHT22;13346;50.984;5.822;2023-02-28T09:20:41;2.10;99.90
24444;DHT22;13346;50.984;5.822;2023-02-28T09:23:10;2.10;99.90
24444;DHT22;13346;50.984;5.822;2023-02-28T09:25:44;2.20;99.90
24444;DHT22;13346;50.984;5.822;2023-02-28T09:28:11;2.20;99.90
24444;DHT22;13346;50.984;5.822;2023-02-28T09:30:41;2.20;99.90
24444;DHT22;13346;50.984;5.822;2023-02-28T09:33:08;2.20;99.90
24444;DHT22;13346;50.984;5.822;2023-02-28T09:35:35;2.20;99.90
24444;DHT22;13346;50.984;5.822;2023-02-28T09:38:03;2.20;99.90
24444;DHT22;13346;50.984;5.822;2023-02-28T09:40:36;2.20;99.90
24444;DHT22;13346;50.984;5.822;2023-02-28T09:43:04;2.40;99.90
24444;DHT22;13346;50.984;5.822;2023-02-28T09:45:35;2.50;99.90
24444;DHT22;13346;50.984;5.822;2023-02-28T09:48:11;2.70;99.90
24444;DHT22;13346;50.984;5.822;2023-02-28T09:50:42;2.80;99.90
24444;DHT22;13346;50.984;5.822;2023-02-28T09:53:18;2.90;99.90
24444;DHT22;13346;50.984;5.822;2023-02-28T09:55:49;3.10;99.90
24444;DHT22;13346;50.984;5.822;2023-02-28T09:58:20;3.20;99.60
24444;DHT22;13346;50.984;5.822;2023-02-28T10:00:57;3.10;99.90
24444;DHT22;13346;50.984;5.822;2023-02-28T10:03:30;3.20;90.30
24444;DHT22;13346;50.984;5.822;2023-02-28T10:06:05;3.50;57.40
24444;DHT22;13346;50.984;5.822;2023-02-28T10:08:37;3.30;79.70
24444;DHT22;13346;50.984;5.822;2023-02-28T10:11:11;3.40;73.20
24444;DHT22;13346;50.984;5.822;2023-02-28T10:13:52;3.80;51.10
24444;DHT22;13346;50.984;5.822;2023-02-28T10:16:25;3.50;53.40
24444;DHT22;13346;50.984;5.822;2023-02-28T10:18:59;3.60;81.70
24444;DHT22;13346;50.984;5.822;2023-02-28T10:21:29;3.60;61.10
24444;DHT22;13346;50.984;5.822;2023-02-28T10:24:04;3.70;52.80
24444;DHT22;13346;50.984;5.822;2023-02-28T10:26:33;3.60;52.40
24444;DHT22;13346;50.984;5.822;2023-02-28T10:29:00;4.00;53.20
24444;DHT22;13346;50.984;5.822;2023-02-28T10:31:28;3.90;34.20
24444;DHT22;13346;50.984;5.822;2023-02-28T10:33:57;4.00;25.50
24444;DHT22;13346;50.984;5.822;2023-02-28T10:36:24;4.60;15.90
24444;DHT22;13346;50.984;5.822;2023-02-28T10:38:51;5.20;9.00
24444;DHT22;13346;50.984;5.822;2023-02-28T10:41:29;5.20;3.90
24444;DHT22;13346;50.984;5.822;2023-02-28T10:44:18;4.80;6.30
24444;DHT22;13346;50.984;5.822;2023-02-28T10:46:48;5.00;3.00
24444;DHT22;13346;50.984;5.822;2023-02-28T10:49:19;5.30;1.00
24444;DHT22;13346;50.984;5.822;2023-02-28T10:51:49;5.40;1.00
24444;DHT22;13346;50.984;5.822;2023-02-28T10:54:20;5.50;1.00
24444;DHT22;13346;50.984;5.822;2023-02-28T10:57:07;4.60;1.00
24444;DHT22;13346;50.984;5.822;2023-02-28T10:59:35;5.00;1.00
24444;DHT22;13346;50.984;5.822;2023-02-28T11:02:32;4.90;1.00
24444;DHT22;13346;50.984;5.822;2023-02-28T11:05:00;4.20;5.10
24444;DHT22;13346;50.984;5.822;2023-02-28T11:07:28;4.40;11.00
24444;DHT22;13346;50.984;5.822;2023-02-28T11:09:56;4.30;8.90
24444;DHT22;13346;50.984;5.822;2023-02-28T11:12:27;4.50;18.30
24444;DHT22;13346;50.984;5.822;2023-02-28T11:14:56;4.90;5.70
24444;DHT22;13346;50.984;5.822;2023-02-28T11:17:27;5.10;12.30
24444;DHT22;13346;50.984;5.822;2023-02-28T11:19:57;4.90;8.50
24444;DHT22;13346;50.984;5.822;2023-02-28T11:22:28;4.70;6.60
24444;DHT22;13346;50.984;5.822;2023-02-28T11:24:59;4.40;12.20
24444;DHT22;13346;50.984;5.822;2023-02-28T11:27:44;5.00;5.20
24444;DHT22;13346;50.984;5.822;2023-02-28T11:30:31;5.20;1.00
24444;DHT22;13346;50.984;5.822;2023-02-28T11:32:59;4.50;3.50
24444;DHT22;13346;50.984;5.822;2023-02-28T11:35:31;4.30;6.60
24444;DHT22;13346;50.984;5.822;2023-02-28T11:38:02;4.70;7.00
24444;DHT22;13346;50.984;5.822;2023-02-28T11:40:39;5.10;9.20
24444;DHT22;13346;50.984;5.822;2023-02-28T11:43:22;5.20;1.90
24444;DHT22;13346;50.984;5.822;2023-02-28T11:46:04;4.80;8.80
24444;DHT22;13346;50.984;5.822;2023-02-28T11:48:40;5.60;1.00
24444;DHT22;13346;50.984;5.822;2023-02-28T11:51:15;5.70;5.70
24444;DHT22;13346;50.984;5.822;2023-02-28T11:53:55;6.00;3.00
24444;DHT22;13346;50.984;5.822;2023-02-28T11:56:31;6.20;1.00
24444;DHT22;13346;50.984;5.822;2023-02-28T11:59:14;5.50;1.00
24444;DHT22;13346;50.984;5.822;2023-02-28T12:02:01;5.40;1.00
24444;DHT22;13346;50.984;5.822;2023-02-28T12:04:40;5.20;5.20
24444;DHT22;13346;50.984;5.822;2023-02-28T12:07:15;5.90;1.00
24444;DHT22;13346;50.984;5.822;2023-02-28T12:09:56;6.00;1.00
24444;DHT22;13346;50.984;5.822;2023-02-28T12:12:37;5.00;1.00
24444;DHT22;13346;50.984;5.822;2023-02-28T12:15:31;5.30;9.90
24444;DHT22;13346;50.984;5.822;2023-02-28T12:20:56;5.60;5.40
24444;DHT22;13346;50.984;5.822;2023-02-28T12:23:43;5.40;10.10
24444;DHT22;13346;50.984;5.822;2023-02-28T12:26:19;5.80;6.10
24444;DHT22;13346;50.984;5.822;2023-02-28T12:28:50;5.50;6.60
24444;DHT22;13346;50.984;5.822;2023-02-28T12:31:20;5.60;13.10
24444;DHT22;13346;50.984;5.822;2023-02-28T12:33:52;5.30;9.20
24444;DHT22;13346;50.984;5.822;2023-02-28T12:36:20;6.30;4.10
24444;DHT22;13346;50.984;5.822;2023-02-28T12:38:53;5.90;1.00
24444;DHT22;13346;50.984;5.822;2023-02-28T12:41:27;6.00;1.00
24444;DHT22;13346;50.984;5.822;2023-02-28T12:44:01;5.50;1.50
24444;DHT22;13346;50.984;5.822;2023-02-28T12:46:32;4.50;11.80
24444;DHT22;13346;50.984;5.822;2023-02-28T12:49:05;4.70;8.90
24444;DHT22;13346;50.984;5.822;2023-02-28T12:51:35;5.30;6.70
24444;DHT22;13346;50.984;5.822;2023-02-28T12:54:10;5.30;9.50
24444;DHT22;13346;50.984;5.822;2023-02-28T12:56:47;5.20;26.00
24444;DHT22;13346;50.984;5.822;2023-02-28T12:59:23;6.20;6.80
24444;DHT22;13346;50.984;5.822;2023-02-28T13:02:16;6.50;1.00
24444;DHT22;13346;50.984;5.822;2023-02-28T13:08:03;5.50;8.80
24444;DHT22;13346;50.984;5.822;2023-02-28T13:10:40;6.00;14.90
24444;DHT22;13346;50.984;5.822;2023-02-28T13:13:15;6.40;1.00
24444;DHT22;13346;50.984;5.822;2023-02-28T13:16:01;6.20;3.90
24444;DHT22;13346;50.984;5.822;2023-02-28T13:18:32;6.40;1.00
24444;DHT22;13346;50.984;5.822;2023-02-28T13:21:02;6.90;1.00
24444;DHT22;13346;50.984;5.822;2023-02-28T13:23:58;6.90;1.00
24444;DHT22;13346;50.984;5.822;2023-02-28T13:29:35;6.50;1.00
24444;DHT22;13346;50.984;5.822;2023-02-28T13:32:29;7.10;1.00
24444;DHT22;13346;50.984;5.822;2023-02-28T13:38:24;6.00;1.00
24444;DHT22;13346;50.984;5.822;2023-02-28T13:44:01;6.40;1.70
24444;DHT22;13346;50.984;5.822;2023-02-28T13:46:31;6.30;9.40
24444;DHT22;13346;50.984;5.822;2023-02-28T13:49:19;5.60;19.90
24444;DHT22;13346;50.984;5.822;2023-02-28T13:51:48;5.40;22.10
24444;DHT22;13346;50.984;5.822;2023-02-28T13:54:27;5.50;34.70
24444;DHT22;13346;50.984;5.822;2023-02-28T13:57:11;4.80;46.70
24444;DHT22;13346;50.984;5.822;2023-02-28T13:59:50;5.30;25.80
24444;DHT22;13346;50.984;5.822;2023-02-28T14:05:29;4.90;53.20
24444;DHT22;13346;50.984;5.822;2023-02-28T14:08:01;5.30;35.20
24444;DHT22;13346;50.984;5.822;2023-02-28T14:10:34;5.90;10.70
24444;DHT22;13346;50.984;5.822;2023-02-28T14:13:13;5.70;44.60
24444;DHT22;13346;50.984;5.822;2023-02-28T14:15:46;5.60;25.90
24444;DHT22;13346;50.984;5.822;2023-02-28T14:18:27;6.00;12.30
24444;DHT22;13346;50.984;5.822;2023-02-28T14:21:01;6.00;8.40
24444;DHT22;13346;50.984;5.822;2023-02-28T14:33:10;6.80;6.80
24444;DHT22;13346;50.984;5.822;2023-02-28T14:36:03;6.40;6.40
24444;DHT22;13346;50.984;5.822;2023-02-28T14:38:34;6.40;10.20
24444;DHT22;13346;50.984;5.822;2023-02-28T14:41:06;6.20;7.00
24444;DHT22;13346;50.984;5.822;2023-02-28T14:43:49;6.50;6.10
24444;DHT22;13346;50.984;5.822;2023-02-28T14:46:17;6.20;9.40
24444;DHT22;13346;50.984;5.822;2023-02-28T14:48:46;5.90;11.20
24444;DHT22;13346;50.984;5.822;2023-02-28T14:51:18;5.70;16.80
24444;DHT22;13346;50.984;5.822;2023-02-28T14:53:50;5.80;27.50
24444;DHT22;13346;50.984;5.822;2023-02-28T14:56:22;5.70;24.10
24444;DHT22;13346;50.984;5.822;2023-02-28T14:58:55;6.10;25.50
24444;DHT22;13346;50.984;5.822;2023-02-28T15:01:24;6.50;13.80
24444;DHT22;13346;50.984;5.822;2023-02-28T15:04:00;5.80;22.30
24444;DHT22;13346;50.984;5.822;2023-02-28T15:06:30;5.50;24.50
24444;DHT22;13346;50.984;5.822;2023-02-28T15:09:14;5.70;24.00
24444;DHT22;13346;50.984;5.822;2023-02-28T15:11:46;6.00;21.00
24444;DHT22;13346;50.984;5.822;2023-02-28T15:14:18;5.30;41.60
24444;DHT22;13346;50.984;5.822;2023-02-28T15:16:51;5.50;35.10
24444;DHT22;13346;50.984;5.822;2023-02-28T15:19:22;5.50;34.30
24444;DHT22;13346;50.984;5.822;2023-02-28T15:21:55;5.50;32.80
24444;DHT22;13346;50.984;5.822;2023-02-28T15:24:35;5.40;38.40
24444;DHT22;13346;50.984;5.822;2023-02-28T15:27:06;5.50;55.00
24444;DHT22;13346;50.984;5.822;2023-02-28T15:29:43;5.20;76.60
24444;DHT22;13346;50.984;5.822;2023-02-28T15:32:24;5.50;33.50
24444;DHT22;13346;50.984;5.822;2023-02-28T15:34:52;5.20;61.20
24444;DHT22;13346;50.984;5.822;2023-02-28T15:37:38;5.30;49.30
24444;DHT22;13346;50.984;5.822;2023-02-28T15:40:12;5.10;41.20
24444;DHT22;13346;50.984;5.822;2023-02-28T15:42:40;5.30;60.50
24444;DHT22;13346;50.984;5.822;2023-02-28T15:45:33;5.30;58.60
24444;DHT22;13346;50.984;5.822;2023-02-28T15:48:04;5.00;59.00
24444;DHT22;13346;50.984;5.822;2023-02-28T15:50:31;4.90;55.40
24444;DHT22;13346;50.984;5.822;2023-02-28T15:53:00;4.70;99.90
24444;DHT22;13346;50.984;5.822;2023-02-28T15:55:30;4.70;95.90
24444;DHT22;13346;50.984;5.822;2023-02-28T15:58:01;4.60;89.60
24444;DHT22;13346;50.984;5.822;2023-02-28T16:00:30;4.60;90.40
24444;DHT22;13346;50.984;5.822;2023-02-28T16:02:58;4.50;74.10
24444;DHT22;13346;50.984;5.822;2023-02-28T16:05:27;4.40;99.90
24444;DHT22;13346;50.984;5.822;2023-02-28T16:08:00;4.40;90.20
24444;DHT22;13346;50.984;5.822;2023-02-28T16:10:28;4.40;82.00
24444;DHT22;13346;50.984;5.822;2023-02-28T16:12:57;4.50;91.00
24444;DHT22;13346;50.984;5.822;2023-02-28T16:15:27;4.40;97.20
24444;DHT22;13346;50.984;5.822;2023-02-28T16:17:55;4.30;99.90
24444;DHT22;13346;50.984;5.822;2023-02-28T16:20:24;4.30;99.90
24444;DHT22;13346;50.984;5.822;2023-02-28T16:22:52;4.20;99.90
24444;DHT22;13346;50.984;5.822;2023-02-28T16:25:34;4.30;99.90
24444;DHT22;13346;50.984;5.822;2023-02-28T16:28:02;4.20;99.90
24444;DHT22;13346;50.984;5.822;2023-02-28T16:30:30;4.10;99.90
24444;DHT22;13346;50.984;5.822;2023-02-28T16:32:58;4.10;99.90
24444;DHT22;13346;50.984;5.822;2023-02-28T16:35:25;4.10;99.90
24444;DHT22;13346;50.984;5.822;2023-02-28T16:37:53;4.10;99.90
24444;DHT22;13346;50.984;5.822;2023-02-28T16:40:24;4.10;99.90